Elbow Lake, Minnesota
Current Conditions -  °F | °C
As of 2:54 PM on Friday 19 Dec 2014 (Local Time) from KY63 Reporting Station
Haze Haze  
Wind Chill: -8°   Ceiling: 700
Heat Index: -2°   Visibility: 5mi
Dew Point: -3°   Wind: 17mph
Humidity: 94%   Direction: 170°S
Pressure: 30.05"   Gusts: NA
Location:  45.99°N, 95.98°W
Report Text: KY63 192054Z AUTO 17015KT 5SM BR OVC007 M02/M02 A3005 RMK AO2 T10171025
Loading
Personal Weather Stations






























Interactive Weather Map New forecast layout! Learn more

10-Day Weather Forecast

Advertisements
Track Severe Weather on mobile